Sedan, Indiana
Current Conditions -  °F | °C
As of 5:35 PM on Tuesday 21 Oct 2014 (Local Time) from KGWB Reporting Station
Overcast Overcast  
Wind Chill: 44°   Ceiling: 3400
Heat Index: 48°   Visibility: 10mi
Dew Point: 36°   Wind: 10mph
Humidity: 62%   Direction: 10°N
Pressure: 30.14"   Gusts: 16mph
Location:  41.4628°N, 85.0178°W
Report Text: KGWB 212135Z AUTO 01009G14KT 10SM OVC034 09/02 A3014 RMK AO2
Loading
Personal Weather Stations






























Interactive Weather Map
Tropical Storm Tracking
New forecast layout! Learn more

10-Day Weather Forecast

Advertisements
Track Severe Weather on mobile